Time,TemperatureF,DewpointF,PressureIn,WindDirection,WindDirectionDegrees,WindSpeedMPH,WindSpeedGustMPH,Humidity,HourlyPrecipIn,Conditions,Clouds,dailyrainin,SoftwareType,DateUTC
2013-02-25 00:21:00,51.0,5.0,30.18,NNW,330,3.0,13.0,15,0.00,,,-99.99,,2013-02-25 08:21:00,
2013-02-25 00:31:00,51.0,5.0,30.18,NNW,330,3.0,13.0,15,0.00,,,-99.99,,2013-02-25 08:31:00,
2013-02-25 00:41:00,51.0,5.0,30.18,NNW,330,3.0,13.0,15,0.00,,,-99.99,,2013-02-25 08:41:00,
2013-02-25 01:21:00,52.0,6.0,30.19,NNW,330,2.0,3.0,15,0.00,,,-99.99,,2013-02-25 09:21:00,
2013-02-25 01:31:00,52.0,6.0,30.19,NNW,330,2.0,3.0,15,0.00,,,-99.99,,2013-02-25 09:31:00,
2013-02-25 01:41:00,52.0,6.0,30.19,NNW,330,2.0,3.0,15,0.00,,,-99.99,,2013-02-25 09:41:00,
2013-02-25 02:21:00,49.0,7.0,30.20,NNW,340,9.0,18.0,18,0.00,,,-99.99,,2013-02-25 10:21:00,
2013-02-25 02:31:00,49.0,7.0,30.20,NNW,340,9.0,18.0,18,0.00,,,-99.99,,2013-02-25 10:31:00,
2013-02-25 02:41:00,49.0,7.0,30.20,NNW,340,9.0,18.0,18,0.00,,,-99.99,,2013-02-25 10:41:00,
2013-02-25 03:21:00,52.0,7.0,30.20,NNE,20,10.0,14.0,16,0.00,,,-99.99,,2013-02-25 11:21:00,
2013-02-25 03:32:00,52.0,7.0,30.20,NNE,20,10.0,14.0,16,0.00,,,-99.99,,2013-02-25 11:32:00,
2013-02-25 03:42:00,52.0,7.0,30.20,NNE,20,10.0,14.0,16,0.00,,,-99.99,,2013-02-25 11:42:00,
2013-02-25 04:21:00,49.0,9.0,30.19,NNE,30,2.0,6.0,19,0.00,,,-99.99,,2013-02-25 12:21:00,
2013-02-25 04:32:00,49.0,9.0,30.19,NNE,30,2.0,6.0,19,0.00,,,-99.99,,2013-02-25 12:32:00,
2013-02-25 04:42:00,49.0,9.0,30.19,NNE,30,2.0,6.0,19,0.00,,,-99.99,,2013-02-25 12:42:00,
2013-02-25 05:22:00,48.0,10.0,30.20,NNE,30,2.0,6.0,21,0.00,,,-99.99,,2013-02-25 13:22:00,
2013-02-25 05:32:00,48.0,10.0,30.20,NNE,30,2.0,6.0,21,0.00,,,-99.99,,2013-02-25 13:32:00,
2013-02-25 05:42:00,48.0,10.0,30.20,NNE,30,2.0,6.0,21,0.00,,,-99.99,,2013-02-25 13:42:00,
2013-02-25 06:22:00,49.0,10.0,30.21,NNE,30,3.0,4.0,20,0.00,,,-99.99,,2013-02-25 14:22:00,
2013-02-25 06:31:00,49.0,10.0,30.21,NNE,30,3.0,4.0,20,0.00,,,-99.99,,2013-02-25 14:31:00,
2013-02-25 06:42:00,49.0,10.0,30.21,NNE,30,3.0,4.0,20,0.00,,,-99.99,,2013-02-25 14:42:00,
2013-02-25 07:21:00,50.0,9.0,30.21,NNE,20,2.0,6.0,19,0.00,,,-99.99,,2013-02-25 15:21:00,
2013-02-25 07:32:00,50.0,9.0,30.21,NNE,20,2.0,6.0,19,0.00,,,-99.99,,2013-02-25 15:32:00,
2013-02-25 07:41:00,50.0,9.0,30.21,NNE,20,2.0,6.0,19,0.00,,,-99.99,,2013-02-25 15:41:00,
2013-02-25 08:21:00,53.0,12.0,30.23,North,0,0.0,3.0,19,0.00,,,-99.99,,2013-02-25 16:21:00,
2013-02-25 08:31:00,53.0,12.0,30.23,North,0,0.0,3.0,19,0.00,,,-99.99,,2013-02-25 16:31:00,
2013-02-25 08:42:00,53.0,12.0,30.23,North,0,0.0,3.0,19,0.00,,,-99.99,,2013-02-25 16:42:00,
2013-02-25 09:21:00,58.0,9.0,30.22,North,0,0.0,1.0,14,0.00,,,-99.99,,2013-02-25 17:21:00,
2013-02-25 09:31:00,58.0,9.0,30.22,North,0,0.0,1.0,14,0.00,,,-99.99,,2013-02-25 17:31:00,
2013-02-25 09:41:00,58.0,9.0,30.22,North,0,0.0,1.0,14,0.00,,,-99.99,,2013-02-25 17:41:00,
2013-02-25 10:21:00,61.0,10.0,30.20,North,0,0.0,3.0,13,0.00,,,-99.99,,2013-02-25 18:21:00,
2013-02-25 10:32:00,61.0,10.0,30.20,North,0,0.0,3.0,13,0.00,,,-99.99,,2013-02-25 18:32:00,
2013-02-25 10:41:00,61.0,10.0,30.20,North,0,0.0,3.0,13,0.00,,,-99.99,,2013-02-25 18:41:00,
2013-02-25 11:21:00,62.0,11.0,30.19,NE,50,9.0,13.0,13,0.00,,,-99.99,,2013-02-25 19:21:00,
2013-02-25 11:31:00,62.0,11.0,30.19,NE,50,9.0,13.0,13,0.00,,,-99.99,,2013-02-25 19:31:00,
2013-02-25 11:41:00,62.0,11.0,30.19,NE,50,9.0,13.0,13,0.00,,,-99.99,,2013-02-25 19:41:00,
2013-02-25 12:21:00,64.0,12.0,30.17,East,100,5.0,14.0,13,0.00,,,-99.99,,2013-02-25 20:21:00,
2013-02-25 12:31:00,64.0,12.0,30.17,East,100,5.0,14.0,13,0.00,,,-99.99,,2013-02-25 20:31:00,
2013-02-25 12:41:00,64.0,12.0,30.17,East,100,5.0,14.0,13,0.00,,,-99.99,,2013-02-25 20:41:00,
2013-02-25 13:21:00,65.0,9.0,30.13,SE,130,3.0,17.0,11,0.00,,,-99.99,,2013-02-25 21:21:00,
2013-02-25 13:31:00,65.0,9.0,30.13,SE,130,3.0,17.0,11,0.00,,,-99.99,,2013-02-25 21:31:00,
2013-02-25 13:42:00,65.0,9.0,30.13,SE,130,3.0,17.0,11,0.00,,,-99.99,,2013-02-25 21:42:00,
2013-02-25 14:21:00,65.0,11.0,30.10,SE,140,10.0,14.0,12,0.00,,,-99.99,,2013-02-25 22:21:00,
2013-02-25 14:32:00,65.0,11.0,30.10,SE,140,10.0,14.0,12,0.00,,,-99.99,,2013-02-25 22:32:00,
2013-02-25 14:41:00,65.0,11.0,30.10,SE,140,10.0,14.0,12,0.00,,,-99.99,,2013-02-25 22:41:00,
2013-02-25 15:22:00,66.0,10.0,30.08,SSE,160,9.0,15.0,11,0.00,,,-99.99,,2013-02-25 23:22:00,
2013-02-25 15:31:00,66.0,10.0,30.08,SSE,160,9.0,15.0,11,0.00,,,-99.99,,2013-02-25 23:31:00,
2013-02-25 15:41:00,66.0,10.0,30.08,SSE,160,9.0,15.0,11,0.00,,,-99.99,,2013-02-25 23:41:00,
2013-02-25 16:21:00,66.0,10.0,30.07,SSE,150,2.0,7.0,11,0.00,,,-99.99,,2013-02-26 00:21:00,
2013-02-25 16:32:00,66.0,10.0,30.07,SSE,150,2.0,7.0,11,0.00,,,-99.99,,2013-02-26 00:32:00,
2013-02-25 16:41:00,66.0,10.0,30.07,SSE,150,2.0,7.0,11,0.00,,,-99.99,,2013-02-26 00:41:00,
2013-02-25 17:21:00,64.0,10.0,30.04,SSE,150,6.0,17.0,12,0.00,,,-99.99,,2013-02-26 01:21:00,
2013-02-25 17:31:00,64.0,10.0,30.04,SSE,150,6.0,17.0,12,0.00,,,-99.99,,2013-02-26 01:31:00,
2013-02-25 17:41:00,64.0,10.0,30.04,SSE,150,6.0,17.0,12,0.00,,,-99.99,,2013-02-26 01:41:00,
2013-02-25 18:21:00,61.0,11.0,30.03,North,0,0.0,3.0,14,0.00,,,-99.99,,2013-02-26 02:21:00,
2013-02-25 18:32:00,61.0,11.0,30.03,North,0,0.0,3.0,14,0.00,,,-99.99,,2013-02-26 02:32:00,
2013-02-25 18:41:00,61.0,11.0,30.03,North,0,0.0,3.0,14,0.00,,,-99.99,,2013-02-26 02:41:00,
2013-02-25 19:21:00,58.0,12.0,30.03,North,-999,0.0,0.0,16,0.00,,,-99.99,,2013-02-26 03:21:00,
2013-02-25 19:31:00,58.0,12.0,30.03,North,-999,0.0,0.0,16,0.00,,,-99.99,,2013-02-26 03:31:00,
2013-02-25 19:41:00,58.0,12.0,30.03,North,-999,0.0,0.0,16,0.00,,,-99.99,,2013-02-26 03:41:00,
2013-02-25 19:42:00,56.0,13.0,30.03,SSE,150,2.0,4.0,18,0.00,,,-99.99,,2013-02-26 03:42:00,
2013-02-25 20:21:00,56.0,13.0,30.03,SSE,150,2.0,4.0,18,0.00,,,-99.99,,2013-02-26 04:21:00,
2013-02-25 20:32:00,56.0,13.0,30.03,SSE,150,2.0,4.0,18,0.00,,,-99.99,,2013-02-26 04:32:00,
2013-02-25 21:21:00,54.0,13.0,30.04,SSE,150,4.0,4.0,19,0.00,,,-99.99,,2013-02-26 05:21:00,
2013-02-25 21:31:00,54.0,13.0,30.04,SSE,150,4.0,4.0,19,0.00,,,-99.99,,2013-02-26 05:31:00,
2013-02-25 21:42:00,54.0,13.0,30.04,SSE,150,4.0,4.0,19,0.00,,,-99.99,,2013-02-26 05:42:00,
2013-02-25 22:21:00,57.0,22.0,30.03,East,100,8.0,33.0,26,0.00,,,-99.99,,2013-02-26 06:21:00,
2013-02-25 22:31:00,57.0,22.0,30.03,East,100,8.0,33.0,26,0.00,,,-99.99,,2013-02-26 06:31:00,
2013-02-25 22:41:00,57.0,22.0,30.03,East,100,8.0,33.0,26,0.00,,,-99.99,,2013-02-26 06:41:00,
2013-02-25 23:22:00,56.0,27.0,30.04,WNW,300,4.0,17.0,32,0.00,,,-99.99,,2013-02-26 07:22:00,
2013-02-25 23:31:00,56.0,27.0,30.04,WNW,300,4.0,17.0,32,0.00,,,-99.99,,2013-02-26 07:31:00,